Portland International Airport
KPDX : now visible

Airfield :











YOU CAN JOIN US ON...

 
LOGIN :

Register | Disclaimer

   EN    FR    IT 

 









Legend :    VFR   Marginal VFR   IFR   Intensive IFR   Very Intensive IFR
Visi :
Ceiling :
>= 8 km
>= 3000ft
5 to 8 km
1000 to 3000 ft
1500m to 5 km
500 to 1000 ft
800 to 1500m
200 to 500 ft
< 800m
< 200 ft
Symbols :   Thunderstorms  Fog  Heavy snow  Heavy precipitations  Wind > 20 kt






- Airport Elevation : 31 ft
- IATA code : PDX


KPDX - Portland International

CURRENT METAR :
  • 291453Z 10010KT 10SM -RA FEW035 OVC075 08/06 A3025 RMK AO2 SLP242 P0002 60003 T00780061 55013

EXPIRED METARs :
  • 291353Z 11007KT 10SM -RA FEW035 FEW045 OVC070 08/06 A3025 RMK AO2 SLP242 P0001 T00830061
  • 291253Z 12008KT 10SM -RA BKN038 OVC075 09/06 A3026 RMK AO2 RAB49 SLP245 P0000 T00890056

TAF KPDX
Valid from the 29 at 15:00 until the 30 at 12:00 UTC


291450Z 2915/3012 12006KT P6SM -RA SCT015 BKN035 OVC050
FM291700 12012KT 6SM -RA BR BKN025 OVC040
FM292000 12009KT 3SM -RA BR SCT015 OVC022
TEMPO 2920/2923 1 1/2SM RA BR SCT009 OVC015
FM300000 21010KT 5SM -RA BR BKN015 OVC030
FM300300 26006KT P6SM -SHRA BKN020 BKN040
FM300900 VRB02KT 5SM BR BKN008 OVC013



MET'MAP, your aeronautical weather chart ! - Copyright ORBIFLY December 2007 - Disclaimer

ORBIFLY MET'MAP TEAM :

Programming & Development : Alexandra Zaïnal
Concept & original design : Baudouin d'Aumeries
Assistance for programming : Marc-Olivier Méhu
Technical & hardware support : Manuel Goepfert

Contact : metmap@orbifly.com




SOURCES & CREDITS :

   NOAA       Earth
Advisory